createdAt,value
2019-06-15T00:00:58.652Z,987.38
2019-06-15T00:01:58.739Z,987.36
2019-06-15T00:05:41.969Z,987.26
2019-06-15T00:06:42.066Z,987.21
2019-06-15T00:07:42.166Z,987.20
2019-06-15T00:08:42.292Z,987.18
2019-06-15T00:09:42.350Z,987.15
2019-06-15T00:10:42.447Z,987.09
2019-06-15T00:11:42.557Z,987.10
2019-06-15T00:12:42.633Z,987.10
2019-06-15T00:13:42.737Z,987.04
2019-06-15T00:14:42.825Z,987.00
2019-06-15T00:15:42.914Z,987.01
2019-06-15T00:16:43.014Z,986.98
2019-06-15T00:17:43.110Z,986.94
2019-06-15T00:18:43.204Z,986.91
2019-06-15T00:19:43.297Z,986.91
2019-06-15T00:20:43.394Z,986.83
2019-06-15T00:21:43.490Z,986.83
2019-06-15T00:22:43.586Z,986.80
2019-06-15T00:23:43.685Z,986.70
2019-06-15T00:24:43.782Z,986.69
2019-06-15T00:25:43.877Z,986.69
2019-06-15T00:26:43.980Z,986.64
2019-06-15T00:27:44.068Z,986.65
2019-06-15T00:28:44.162Z,986.57
2019-06-15T00:29:44.256Z,986.55
2019-06-15T00:30:44.353Z,986.58
2019-06-15T00:31:44.447Z,986.55
2019-06-15T00:32:44.551Z,986.55
2019-06-15T00:33:44.642Z,986.53
2019-06-15T00:34:44.744Z,986.49
2019-06-15T00:35:44.830Z,986.54
2019-06-15T00:36:44.924Z,986.52
2019-06-15T00:37:45.019Z,986.53
2019-06-15T00:38:45.119Z,986.55
2019-06-15T00:39:45.214Z,986.54
2019-06-15T00:40:45.311Z,986.56
2019-06-15T00:41:45.410Z,986.53
2019-06-15T00:42:45.500Z,986.54
2019-06-15T00:43:45.599Z,986.58
2019-06-15T00:44:45.691Z,986.57
2019-06-15T00:45:45.788Z,986.61
2019-06-15T00:46:45.880Z,986.59
2019-06-15T00:47:45.974Z,986.57
2019-06-15T00:48:46.063Z,986.64
2019-06-15T00:49:46.156Z,986.56
2019-06-15T00:50:46.251Z,986.56
2019-06-15T00:51:46.349Z,986.52
2019-06-15T00:52:46.443Z,986.50
2019-06-15T00:53:46.553Z,986.49
2019-06-15T00:54:50.471Z,986.48
2019-06-15T00:55:46.747Z,986.45
2019-06-15T00:56:46.840Z,986.38
2019-06-15T00:57:46.937Z,986.39
2019-06-15T00:58:47.032Z,986.37
2019-06-15T00:59:47.128Z,986.33
2019-06-15T01:00:47.223Z,986.33
2019-06-15T01:01:47.320Z,986.29
2019-06-15T01:02:47.412Z,986.31
2019-06-15T01:03:47.506Z,986.25
2019-06-15T01:04:47.602Z,986.25
2019-06-15T01:05:47.711Z,986.22
2019-06-15T01:06:47.790Z,986.14
2019-06-15T01:07:47.886Z,986.12
2019-06-15T01:08:47.982Z,986.09
2019-06-15T01:09:48.080Z,986.05
2019-06-15T01:10:48.173Z,986.01
2019-06-15T01:11:48.270Z,985.98
2019-06-15T01:12:48.368Z,985.96
2019-06-15T01:13:48.464Z,985.91
2019-06-15T01:14:48.583Z,985.88
2019-06-15T01:15:48.677Z,985.82
2019-06-15T01:16:48.773Z,985.84
2019-06-15T01:17:48.874Z,985.81
2019-06-15T01:18:48.975Z,985.74
2019-06-15T01:19:49.068Z,985.67
2019-06-15T01:20:49.165Z,985.66
2019-06-15T01:21:49.258Z,985.57
2019-06-15T01:22:49.358Z,985.54
2019-06-15T01:23:49.457Z,985.50
2019-06-15T01:24:49.556Z,985.46
2019-06-15T01:25:49.647Z,985.43
2019-06-15T01:26:49.767Z,985.34
2019-06-15T01:27:49.866Z,985.34
2019-06-15T01:28:49.964Z,985.28
2019-06-15T01:29:50.056Z,985.30
2019-06-15T01:30:50.155Z,985.26
2019-06-15T01:31:50.260Z,985.23
2019-06-15T01:32:50.349Z,985.23
2019-06-15T01:33:50.450Z,985.23
2019-06-15T01:34:50.540Z,985.22
2019-06-15T01:35:50.636Z,985.26
2019-06-15T01:36:50.733Z,985.27
2019-06-15T01:37:50.828Z,985.28
2019-06-15T01:38:50.924Z,985.24
2019-06-15T01:39:51.019Z,985.24
2019-06-15T01:40:51.112Z,985.21
2019-06-15T01:41:51.213Z,985.21
2019-06-15T01:42:51.306Z,985.18
2019-06-15T01:43:51.406Z,985.14
2019-06-15T01:44:51.520Z,985.15
2019-06-15T01:45:51.594Z,985.12
2019-06-15T01:46:51.690Z,985.12
2019-06-15T01:47:51.789Z,985.13
2019-06-15T01:48:51.882Z,985.15
2019-06-15T01:49:51.968Z,985.16
2019-06-15T01:50:52.065Z,985.23
2019-06-15T01:51:52.165Z,985.25
2019-06-15T01:52:52.259Z,985.27
2019-06-15T01:53:52.354Z,985.25
2019-06-15T01:54:52.480Z,985.21
2019-06-15T01:55:52.566Z,985.18
2019-06-15T01:56:52.662Z,985.12
2019-06-15T01:57:52.759Z,985.11
2019-06-15T01:58:52.856Z,985.10
2019-06-15T01:59:52.950Z,985.08
2019-06-15T02:00:53.048Z,985.07
2019-06-15T02:01:53.142Z,985.12
2019-06-15T02:02:53.238Z,985.07
2019-06-15T02:03:53.333Z,985.10
2019-06-15T02:04:53.449Z,985.11
2019-06-15T02:05:53.526Z,985.03
2019-06-15T02:06:53.623Z,984.98
2019-06-15T02:07:53.717Z,984.92
2019-06-15T02:08:53.812Z,984.88
2019-06-15T02:09:53.906Z,984.86
2019-06-15T02:10:54.005Z,984.90
2019-06-15T02:11:54.100Z,984.96
2019-06-15T02:12:54.193Z,985.05
2019-06-15T02:13:54.290Z,985.12
2019-06-15T02:14:54.401Z,985.21
2019-06-15T02:15:54.493Z,985.17
2019-06-15T02:16:54.582Z,985.10
2019-06-15T02:17:54.689Z,985.07
2019-06-15T02:18:54.785Z,985.03
2019-06-15T02:19:54.876Z,984.93
2019-06-15T02:20:54.974Z,984.90
2019-06-15T02:21:55.076Z,984.97
2019-06-15T02:22:55.169Z,985.02
2019-06-15T02:23:55.263Z,985.14
2019-06-15T02:24:55.371Z,985.12
2019-06-15T02:25:55.526Z,985.01
2019-06-15T02:26:55.784Z,984.93
2019-06-15T02:27:55.767Z,984.84
2019-06-15T02:28:55.855Z,984.85
2019-06-15T02:29:55.947Z,984.67
2019-06-15T02:30:56.048Z,984.63
2019-06-15T02:31:56.140Z,984.62
2019-06-15T02:32:56.238Z,984.70
2019-06-15T02:33:56.344Z,984.70
2019-06-15T02:34:56.431Z,984.68
2019-06-15T02:35:56.539Z,984.72
2019-06-15T02:36:56.644Z,984.75
2019-06-15T02:37:56.734Z,984.83
2019-06-15T02:38:56.828Z,984.83
2019-06-15T02:39:56.925Z,984.91
2019-06-15T02:40:57.019Z,984.90
2019-06-15T02:41:57.123Z,984.88
2019-06-15T02:42:57.212Z,984.82
2019-06-15T02:43:57.308Z,984.83
2019-06-15T02:44:57.403Z,984.82
2019-06-15T02:45:57.497Z,984.74
2019-06-15T02:46:57.595Z,984.65
2019-06-15T02:47:57.688Z,984.69
2019-06-15T02:48:57.785Z,984.69
2019-06-15T02:49:57.879Z,984.74
2019-06-15T02:50:57.972Z,984.77
2019-06-15T02:51:58.068Z,984.75
2019-06-15T02:52:58.162Z,984.73
2019-06-15T02:53:58.258Z,984.79
2019-06-15T02:54:58.350Z,984.77
2019-06-15T02:55:58.444Z,984.77
2019-06-15T02:56:58.542Z,984.80
2019-06-15T02:57:58.635Z,984.77
2019-06-15T02:58:58.729Z,984.76
2019-06-15T02:59:58.829Z,984.76
2019-06-15T03:00:58.923Z,984.74
2019-06-15T03:01:59.020Z,984.68
2019-06-15T03:02:59.114Z,984.72
2019-06-15T03:03:59.211Z,984.78
2019-06-15T03:04:59.305Z,984.76
2019-06-15T03:05:59.405Z,984.88
2019-06-15T03:06:59.497Z,984.95
2019-06-15T03:07:59.598Z,984.99
2019-06-15T03:08:59.698Z,984.97
2019-06-15T03:09:59.800Z,984.93
2019-06-15T03:10:59.897Z,984.87
2019-06-15T03:12:00.001Z,984.89
2019-06-15T03:13:00.086Z,984.83
2019-06-15T03:14:00.181Z,984.86
2019-06-15T03:15:00.279Z,984.89
2019-06-15T03:16:00.376Z,984.89
2019-06-15T03:17:00.483Z,984.89
2019-06-15T03:18:00.565Z,984.88
2019-06-15T03:19:00.661Z,984.88
2019-06-15T03:20:00.755Z,984.87
2019-06-15T03:21:00.852Z,984.91
2019-06-15T03:22:00.948Z,984.93
2019-06-15T03:23:01.041Z,984.99
2019-06-15T03:24:01.134Z,985.02
2019-06-15T03:25:01.280Z,985.02
2019-06-15T03:26:05.664Z,985.06
2019-06-15T03:27:01.423Z,985.09
2019-06-15T03:28:01.532Z,985.00
2019-06-15T03:29:01.638Z,984.99
2019-06-15T03:30:01.749Z,985.01
2019-06-15T03:31:01.834Z,985.02
2019-06-15T03:32:01.929Z,985.01
2019-06-15T03:33:02.025Z,984.98
2019-06-15T03:34:02.118Z,984.97
2019-06-15T03:35:02.214Z,985.06
2019-06-15T03:36:02.324Z,984.99
2019-06-15T03:37:02.407Z,984.96
2019-06-15T03:38:02.501Z,984.91
2019-06-15T03:39:02.597Z,984.94
2019-06-15T03:40:02.692Z,984.92
2019-06-15T03:41:02.789Z,984.89
2019-06-15T03:42:02.893Z,984.91
2019-06-15T03:43:02.978Z,984.88
2019-06-15T03:44:03.138Z,984.92
2019-06-15T03:45:03.168Z,984.92
2019-06-15T03:46:03.263Z,984.88
2019-06-15T03:47:03.374Z,984.87
2019-06-15T03:48:03.468Z,984.91
2019-06-15T03:49:03.581Z,984.85
2019-06-15T03:50:03.670Z,984.88
2019-06-15T03:51:03.768Z,984.89
2019-06-15T03:52:03.857Z,984.90
2019-06-15T03:53:03.953Z,984.91
2019-06-15T03:54:04.053Z,984.90
2019-06-15T03:55:04.152Z,984.83
2019-06-15T03:56:04.247Z,984.80
2019-06-15T03:57:04.350Z,984.84
2019-06-15T03:58:04.437Z,984.81
2019-06-15T03:59:04.535Z,984.77
2019-06-15T04:00:04.628Z,984.79
2019-06-15T04:01:04.733Z,984.79
2019-06-15T04:02:04.934Z,984.77
2019-06-15T04:03:04.919Z,984.81
2019-06-15T04:04:05.016Z,984.82
2019-06-15T04:05:05.110Z,984.79
2019-06-15T04:06:05.209Z,984.78
2019-06-15T04:07:05.307Z,984.79
2019-06-15T04:08:05.398Z,984.81
2019-06-15T04:09:05.495Z,984.81
2019-06-15T04:10:05.592Z,984.81
2019-06-15T04:11:05.687Z,984.72
2019-06-15T04:12:05.782Z,984.74
2019-06-15T04:13:05.872Z,984.73
2019-06-15T04:14:05.978Z,984.66
2019-06-15T04:15:06.060Z,984.63
2019-06-15T04:16:06.157Z,984.56
2019-06-15T04:17:06.256Z,984.57
2019-06-15T04:18:06.351Z,984.55
2019-06-15T04:19:06.448Z,984.54
2019-06-15T04:20:06.545Z,984.53
2019-06-15T04:21:06.642Z,984.55
2019-06-15T04:22:06.737Z,984.58
2019-06-15T04:23:06.877Z,984.62
2019-06-15T04:24:06.933Z,984.63
2019-06-15T04:25:07.023Z,984.59
2019-06-15T04:26:07.120Z,984.59
2019-06-15T04:27:07.215Z,984.54
2019-06-15T04:28:07.313Z,984.55
2019-06-15T04:29:07.407Z,984.52
2019-06-15T04:30:07.501Z,984.51
2019-06-15T04:31:07.597Z,984.53
2019-06-15T04:32:07.692Z,984.49
2019-06-15T04:33:07.786Z,984.47
2019-06-15T04:34:07.882Z,984.46
2019-06-15T04:35:07.976Z,984.45
2019-06-15T04:36:08.074Z,984.45
2019-06-15T04:37:08.171Z,984.44
2019-06-15T04:38:08.263Z,984.49
2019-06-15T04:39:08.364Z,984.50
2019-06-15T04:40:08.456Z,984.47
2019-06-15T04:41:08.557Z,984.40
2019-06-15T04:42:08.671Z,984.45
2019-06-15T04:43:08.766Z,984.44
2019-06-15T04:44:08.886Z,984.46
2019-06-15T04:45:08.956Z,984.48
2019-06-15T04:46:09.053Z,984.54
2019-06-15T04:47:09.146Z,984.55
2019-06-15T04:48:09.248Z,984.60
2019-06-15T04:49:09.341Z,984.64
2019-06-15T04:50:09.440Z,984.62
2019-06-15T04:51:09.533Z,984.68
2019-06-15T04:52:09.630Z,984.70
2019-06-15T04:53:09.732Z,984.73
2019-06-15T04:54:09.830Z,984.78
2019-06-15T04:55:09.921Z,984.78
2019-06-15T04:56:10.015Z,984.74
2019-06-15T04:57:10.110Z,984.75
2019-06-15T04:58:10.206Z,984.78
2019-06-15T04:59:10.302Z,984.81
2019-06-15T05:00:10.405Z,984.84
2019-06-15T05:01:10.494Z,984.83
2019-06-15T05:02:10.599Z,984.93
2019-06-15T05:03:10.693Z,984.93
2019-06-15T05:04:10.791Z,984.97
2019-06-15T05:05:10.888Z,985.02
2019-06-15T05:06:10.987Z,984.99
2019-06-15T05:07:11.080Z,984.97
2019-06-15T05:08:11.178Z,984.99
2019-06-15T05:09:11.274Z,985.02
2019-06-15T05:10:11.377Z,984.99
2019-06-15T05:11:11.474Z,985.01
2019-06-15T05:12:11.570Z,985.00
2019-06-15T05:13:11.669Z,985.05
2019-06-15T05:14:11.770Z,985.11
2019-06-15T05:15:11.865Z,985.12
2019-06-15T05:16:11.980Z,985.16
2019-06-15T05:17:12.061Z,985.10
2019-06-15T05:18:12.149Z,985.07
2019-06-15T05:19:12.249Z,985.05
2019-06-15T05:20:12.444Z,985.02
2019-06-15T05:21:12.445Z,985.05
2019-06-15T05:22:12.570Z,985.12
2019-06-15T05:23:12.626Z,985.16
2019-06-15T05:24:12.738Z,985.22
2019-06-15T05:25:12.824Z,985.27
2019-06-15T05:26:12.933Z,985.27
2019-06-15T05:27:13.029Z,985.22
2019-06-15T05:28:13.124Z,985.25
2019-06-15T05:29:13.245Z,985.25
2019-06-15T05:30:13.346Z,985.25
2019-06-15T05:31:13.463Z,985.23
2019-06-15T05:32:13.536Z,985.23
2019-06-15T05:33:13.640Z,985.34
2019-06-15T05:34:13.737Z,985.38
2019-06-15T05:35:13.830Z,985.23
2019-06-15T05:36:13.927Z,985.13
2019-06-15T05:37:14.029Z,985.22
2019-06-15T05:38:14.129Z,985.27
2019-06-15T05:39:14.230Z,985.31
2019-06-15T05:40:14.333Z,985.25
2019-06-15T05:41:15.818Z,985.40
2019-06-15T05:42:14.528Z,985.43
2019-06-15T05:43:14.630Z,985.39
2019-06-15T05:44:14.735Z,985.37
2019-06-15T05:45:14.836Z,985.32
2019-06-15T05:46:14.944Z,985.36
2019-06-15T05:47:15.041Z,985.42
2019-06-15T05:48:15.141Z,985.45
2019-06-15T05:49:15.244Z,985.39
2019-06-15T05:50:15.350Z,985.43
2019-06-15T05:51:15.461Z,985.42
2019-06-15T05:52:15.564Z,985.53
2019-06-15T05:53:15.670Z,985.60
2019-06-15T05:54:15.769Z,985.64
2019-06-15T05:55:15.871Z,985.49
2019-06-15T05:56:15.977Z,985.63
2019-06-15T05:57:21.649Z,985.55
2019-06-15T05:58:16.201Z,985.55
2019-06-15T05:59:16.308Z,985.52
2019-06-15T06:00:16.408Z,985.69
2019-06-15T06:01:16.511Z,985.70
2019-06-15T06:02:16.613Z,985.71
2019-06-15T06:03:16.721Z,985.77
2019-06-15T06:04:16.824Z,985.78
2019-06-15T06:05:16.927Z,985.78
2019-06-15T06:06:17.031Z,985.83
2019-06-15T06:07:17.135Z,985.82
2019-06-15T06:08:17.242Z,985.86
2019-06-15T06:09:17.343Z,985.90
2019-06-15T06:10:17.451Z,985.88
2019-06-15T06:11:17.551Z,985.87
2019-06-15T06:12:17.656Z,985.85
2019-06-15T06:13:17.765Z,985.87
2019-06-15T06:14:17.864Z,985.88
2019-06-15T06:15:17.970Z,985.90
2019-06-15T06:16:18.074Z,985.96
2019-06-15T06:17:18.179Z,986.00
2019-06-15T06:18:18.280Z,986.00
2019-06-15T06:19:18.385Z,985.98
2019-06-15T06:20:18.509Z,986.01
2019-06-15T06:21:18.594Z,986.03
2019-06-15T06:22:18.697Z,986.02
2019-06-15T06:23:18.805Z,986.05
2019-06-15T06:24:18.912Z,986.08
2019-06-15T06:25:19.049Z,986.05
2019-06-15T06:26:19.123Z,986.01
2019-06-15T06:27:19.226Z,985.99
2019-06-15T06:28:19.366Z,986.06
2019-06-15T06:29:19.438Z,986.10
2019-06-15T06:30:19.536Z,986.18
2019-06-15T06:31:19.640Z,986.17
2019-06-15T06:32:19.737Z,986.10
2019-06-15T06:33:19.863Z,986.11
2019-06-15T06:34:19.965Z,986.16
2019-06-15T06:35:20.067Z,986.16
2019-06-15T06:36:20.171Z,986.22
2019-06-15T06:37:20.277Z,986.24
2019-06-15T06:38:20.369Z,986.27
2019-06-15T06:39:20.470Z,986.33
2019-06-15T06:40:20.588Z,986.35
2019-06-15T06:41:20.689Z,986.30
2019-06-15T06:42:20.793Z,986.46
2019-06-15T06:43:20.894Z,986.54
2019-06-15T06:44:20.993Z,986.61
2019-06-15T06:45:21.097Z,986.64
2019-06-15T06:46:21.197Z,986.67
2019-06-15T06:47:21.299Z,986.62
2019-06-15T06:48:21.404Z,986.57
2019-06-15T06:49:21.501Z,986.69
2019-06-15T06:50:21.604Z,986.83
2019-06-15T06:51:21.710Z,986.86
2019-06-15T06:52:21.826Z,986.86
2019-06-15T06:53:21.906Z,986.93
2019-06-15T06:54:22.024Z,986.94
2019-06-15T06:55:22.111Z,986.91
2019-06-15T06:56:22.210Z,986.99
2019-06-15T06:57:22.307Z,987.12
2019-06-15T06:58:22.439Z,987.02
2019-06-15T06:59:22.515Z,986.98
2019-06-15T07:00:22.622Z,986.91
2019-06-15T07:01:22.720Z,986.88
2019-06-15T07:02:22.819Z,986.90
2019-06-15T07:03:22.930Z,986.98
2019-06-15T07:04:23.021Z,986.89
2019-06-15T07:05:23.138Z,986.89
2019-06-15T07:06:23.231Z,986.95
2019-06-15T07:07:23.328Z,986.95
2019-06-15T07:08:23.443Z,986.91
2019-06-15T07:09:23.529Z,986.92
2019-06-15T07:10:23.633Z,987.01
2019-06-15T07:11:23.731Z,986.98
2019-06-15T07:12:23.833Z,986.94
2019-06-15T07:13:23.939Z,986.99
2019-06-15T07:14:24.041Z,987.01
2019-06-15T07:15:24.147Z,987.02
2019-06-15T07:16:24.244Z,987.00
2019-06-15T07:17:24.346Z,986.97
2019-06-15T07:18:24.450Z,986.99
2019-06-15T07:19:24.548Z,986.96
2019-06-15T07:20:24.648Z,986.98
2019-06-15T07:21:24.749Z,987.06
2019-06-15T07:22:24.853Z,987.07
2019-06-15T07:23:24.950Z,987.01
2019-06-15T07:24:25.049Z,987.01
2019-06-15T07:25:25.150Z,986.99
2019-06-15T07:26:25.254Z,986.98
2019-06-15T07:30:58.940Z,987.02
2019-06-15T07:31:47.673Z,987.06
2019-06-15T07:32:47.800Z,987.11
2019-06-15T07:33:47.877Z,987.07
2019-06-15T07:34:47.973Z,987.12
2019-06-15T07:35:48.074Z,987.16
2019-06-15T07:36:48.195Z,987.20
2019-06-15T07:37:48.283Z,987.26
2019-06-15T07:38:48.385Z,987.26
2019-06-15T07:39:48.491Z,987.34
2019-06-15T07:40:48.594Z,987.36
2019-06-15T07:41:48.707Z,987.25
2019-06-15T07:42:48.803Z,987.29
2019-06-15T07:43:48.905Z,987.36
2019-06-15T07:44:57.666Z,987.39
2019-06-15T07:45:49.139Z,987.31
2019-06-15T07:46:49.243Z,987.38
2019-06-15T07:47:49.343Z,987.46
2019-06-15T07:48:49.444Z,987.46
2019-06-15T07:49:49.545Z,987.48
2019-06-15T07:50:49.647Z,987.54
2019-06-15T07:51:49.739Z,987.47
2019-06-15T07:52:49.860Z,987.52
2019-06-15T07:53:49.964Z,987.62
2019-06-15T07:54:50.063Z,987.55
2019-06-15T07:55:50.165Z,987.60
2019-06-15T07:56:50.300Z,987.54
2019-06-15T07:57:50.431Z,987.56
2019-06-15T07:58:50.465Z,987.53
2019-06-15T07:59:50.564Z,987.54
2019-06-15T08:00:50.668Z,987.53
2019-06-15T08:01:50.774Z,987.65
2019-06-15T08:02:50.890Z,987.73
2019-06-15T08:03:50.977Z,987.72
2019-06-15T08:04:51.071Z,987.67
2019-06-15T08:05:51.176Z,987.71
2019-06-15T08:06:51.276Z,987.72
2019-06-15T08:07:51.379Z,987.71
2019-06-15T08:08:51.487Z,987.80
2019-06-15T08:09:51.577Z,987.78
2019-06-15T08:10:51.679Z,987.77
2019-06-15T08:11:51.781Z,987.73
2019-06-15T08:12:51.883Z,987.77
2019-06-15T08:13:51.983Z,987.80
2019-06-15T08:14:52.085Z,987.90
2019-06-15T08:15:52.186Z,987.94
2019-06-15T08:16:52.298Z,988.02
2019-06-15T08:17:52.392Z,987.87
2019-06-15T08:18:52.487Z,987.85
2019-06-15T08:19:52.578Z,987.89
2019-06-15T08:20:52.688Z,987.85
2019-06-15T08:21:52.785Z,987.88
2019-06-15T08:22:52.904Z,987.94
2019-06-15T08:23:52.985Z,987.92
2019-06-15T08:24:53.088Z,988.06
2019-06-15T08:25:53.189Z,987.92
2019-06-15T08:26:53.294Z,987.95
2019-06-15T08:27:53.389Z,987.97
2019-06-15T08:28:53.491Z,987.88
2019-06-15T08:29:53.594Z,987.90
2019-06-15T08:30:53.691Z,987.94
2019-06-15T08:31:53.795Z,988.04
2019-06-15T08:32:53.894Z,988.01
2019-06-15T08:33:53.990Z,988.06
2019-06-15T08:34:54.093Z,988.03
2019-06-15T08:35:54.197Z,988.18
2019-06-15T08:36:54.297Z,988.13
2019-06-15T08:37:54.400Z,988.16
2019-06-15T08:38:54.500Z,988.19
2019-06-15T08:39:54.669Z,988.14
2019-06-15T08:40:54.656Z,988.06
2019-06-15T08:41:56.891Z,988.14
2019-06-15T08:42:54.974Z,988.13
2019-06-15T08:43:55.126Z,988.13
2019-06-15T08:44:54.980Z,988.24
2019-06-15T08:45:55.089Z,988.28
2019-06-15T08:46:55.227Z,988.30
2019-06-15T08:47:55.300Z,988.31
2019-06-15T08:48:55.396Z,988.27
2019-06-15T08:49:55.503Z,988.37
2019-06-15T08:50:55.598Z,988.32
2019-06-15T08:51:55.701Z,988.29
2019-06-15T08:52:55.802Z,988.36
2019-06-15T08:53:55.903Z,988.43
2019-06-15T08:54:56.009Z,988.39
2019-06-15T08:55:56.110Z,988.51
2019-06-15T08:56:56.210Z,988.50
2019-06-15T08:57:56.306Z,988.59
2019-06-15T08:58:56.408Z,988.71
2019-06-15T08:59:56.535Z,988.62
2019-06-15T09:00:56.615Z,988.70
2019-06-15T09:01:56.715Z,988.69
2019-06-15T09:02:56.816Z,988.71
2019-06-15T09:03:56.920Z,988.73
2019-06-15T09:04:57.023Z,988.65
2019-06-15T09:05:57.133Z,988.66
2019-06-15T09:06:57.233Z,988.69
2019-06-15T09:07:57.339Z,988.70
2019-06-15T09:08:57.448Z,988.63
2019-06-15T09:09:57.534Z,988.63
2019-06-15T09:10:57.644Z,988.61
2019-06-15T09:11:57.735Z,988.55
2019-06-15T09:12:57.838Z,988.58
2019-06-15T09:13:57.942Z,988.55
2019-06-15T09:14:58.044Z,988.67
2019-06-15T09:15:58.149Z,988.68
2019-06-15T09:16:58.264Z,988.70
2019-06-15T09:17:58.350Z,988.72
2019-06-15T09:18:58.448Z,988.70
2019-06-15T09:19:58.549Z,988.80
2019-06-15T09:20:58.655Z,988.75
2019-06-15T09:21:58.752Z,988.76
2019-06-15T09:22:58.853Z,988.78
2019-06-15T09:23:58.959Z,988.72
2019-06-15T09:24:59.055Z,988.70
2019-06-15T09:25:59.157Z,988.85
2019-06-15T09:26:59.257Z,988.78
2019-06-15T09:27:59.372Z,988.75
2019-06-15T09:29:10.898Z,988.79
2019-06-15T09:29:59.576Z,988.81
2019-06-15T09:30:59.682Z,988.94
2019-06-15T09:31:59.788Z,988.92
2019-06-15T09:32:59.889Z,988.87
2019-06-15T09:33:59.994Z,988.82
2019-06-15T09:35:00.090Z,988.84
2019-06-15T09:36:00.193Z,988.87
2019-06-15T09:37:00.298Z,988.86
2019-06-15T09:38:00.399Z,988.92
2019-06-15T09:39:00.502Z,989.00
2019-06-15T09:40:00.602Z,988.94
2019-06-15T09:41:00.705Z,989.00
2019-06-15T09:42:00.810Z,988.92
2019-06-15T09:43:00.911Z,989.00
2019-06-15T09:44:01.018Z,989.01
2019-06-15T09:45:01.118Z,988.99
2019-06-15T09:46:01.225Z,989.10
2019-06-15T09:47:01.330Z,989.11
2019-06-15T09:48:01.434Z,989.24
2019-06-15T09:49:01.531Z,989.12
2019-06-15T09:50:01.631Z,989.15
2019-06-15T09:51:01.729Z,989.16
2019-06-15T09:52:01.835Z,989.16
2019-06-15T09:53:01.934Z,989.19
2019-06-15T09:54:02.034Z,989.26
2019-06-15T09:55:02.142Z,989.23
2019-06-15T09:56:02.269Z,989.31
2019-06-15T09:57:02.349Z,989.31
2019-06-15T09:58:02.446Z,989.42
2019-06-15T09:59:02.546Z,989.35
2019-06-15T10:00:03.037Z,989.30
2019-06-15T10:01:02.762Z,989.32
2019-06-15T10:02:02.872Z,989.36
2019-06-15T10:03:02.968Z,989.33
2019-06-15T10:04:03.063Z,989.30
2019-06-15T10:05:03.175Z,989.42
2019-06-15T10:06:03.275Z,989.49
2019-06-15T10:07:03.376Z,989.58
2019-06-15T10:08:03.478Z,989.44
2019-06-15T10:09:03.587Z,989.49
2019-06-15T10:10:03.681Z,989.45
2019-06-15T10:11:03.783Z,989.50
2019-06-15T10:12:03.882Z,989.59
2019-06-15T10:13:03.984Z,989.68
2019-06-15T10:14:04.128Z,989.62
2019-06-15T10:15:04.187Z,989.49
2019-06-15T10:16:04.291Z,989.48
2019-06-15T10:17:04.394Z,989.57
2019-06-15T10:18:04.485Z,989.59
2019-06-15T10:19:04.598Z,989.62
2019-06-15T10:20:04.705Z,989.68
2019-06-15T10:21:04.803Z,989.74
2019-06-15T10:22:04.913Z,989.74
2019-06-15T10:23:05.009Z,989.76
2019-06-15T10:24:05.107Z,989.62
2019-06-15T10:25:05.209Z,989.66
2019-06-15T10:26:05.311Z,989.66
2019-06-15T10:27:05.416Z,989.68
2019-06-15T10:28:05.511Z,989.67
2019-06-15T10:29:05.655Z,989.72
2019-06-15T10:30:05.725Z,989.78
2019-06-15T10:31:05.820Z,989.72
2019-06-15T10:32:05.908Z,989.78
2019-06-15T10:33:06.009Z,989.87
2019-06-15T10:34:06.116Z,989.77
2019-06-15T10:35:06.216Z,989.82
2019-06-15T10:36:09.554Z,989.77
2019-06-15T10:37:06.409Z,989.80
2019-06-15T10:38:06.520Z,989.79
2019-06-15T10:39:06.629Z,989.78
2019-06-15T10:40:06.717Z,989.79
2019-06-15T10:41:06.829Z,989.85
2019-06-15T10:42:06.933Z,989.86
2019-06-15T10:43:07.033Z,989.86
2019-06-15T10:44:07.136Z,989.84
2019-06-15T10:45:07.238Z,989.80
2019-06-15T10:46:07.335Z,989.89
2019-06-15T10:47:07.451Z,989.94
2019-06-15T10:48:07.552Z,989.86
2019-06-15T10:49:07.647Z,989.89
2019-06-15T10:50:07.760Z,989.82
2019-06-15T10:51:07.852Z,989.83
2019-06-15T10:52:07.960Z,989.86
2019-06-15T10:53:08.059Z,989.87
2019-06-15T10:54:08.522Z,989.87
2019-06-15T10:55:08.277Z,989.83
2019-06-15T10:56:08.381Z,989.84
2019-06-15T10:57:08.483Z,989.83
2019-06-15T10:58:08.587Z,989.80
2019-06-15T10:59:08.695Z,989.78
2019-06-15T11:00:08.801Z,989.93
2019-06-15T11:01:08.906Z,990.09
2019-06-15T11:02:09.011Z,989.95
2019-06-15T11:03:09.117Z,989.87
2019-06-15T11:04:09.217Z,989.93
2019-06-15T11:05:09.323Z,989.90
2019-06-15T11:06:09.428Z,989.94
2019-06-15T11:07:09.545Z,989.85
2019-06-15T11:08:09.639Z,989.85
2019-06-15T11:09:09.741Z,989.85
2019-06-15T11:10:09.844Z,989.92
2019-06-15T11:11:09.950Z,989.92
2019-06-15T11:12:10.051Z,990.02
2019-06-15T11:13:10.154Z,990.05
2019-06-15T11:14:10.259Z,989.89
2019-06-15T11:15:10.396Z,989.99
2019-06-15T11:16:10.460Z,989.97
2019-06-15T11:17:10.567Z,990.12
2019-06-15T11:18:10.661Z,990.11
2019-06-15T11:19:10.811Z,990.20
2019-06-15T11:20:10.874Z,990.17
2019-06-15T11:21:11.004Z,990.12
2019-06-15T11:22:11.082Z,990.18
2019-06-15T11:23:11.188Z,990.24
2019-06-15T11:24:11.288Z,990.18
2019-06-15T11:25:11.391Z,990.23
2019-06-15T11:26:11.495Z,990.09
2019-06-15T11:27:11.596Z,990.07
2019-06-15T11:28:11.702Z,990.23
2019-06-15T11:29:11.801Z,990.14
2019-06-15T11:30:14.074Z,990.23
2019-06-15T11:31:12.006Z,990.27
2019-06-15T11:32:12.107Z,990.35
2019-06-15T11:33:12.205Z,990.22
2019-06-15T11:34:12.315Z,990.24
2019-06-15T11:35:12.414Z,990.24
2019-06-15T11:36:12.512Z,990.24
2019-06-15T11:37:12.617Z,990.29
2019-06-15T11:38:12.716Z,990.23
2019-06-15T11:39:12.818Z,990.19
2019-06-15T11:40:12.917Z,990.19
2019-06-15T11:41:13.016Z,990.15
2019-06-15T11:42:13.116Z,990.20
2019-06-15T11:43:13.219Z,990.06
2019-06-15T11:44:13.322Z,990.18
2019-06-15T11:45:13.425Z,990.23
2019-06-15T11:46:13.547Z,990.31
2019-06-15T11:47:13.636Z,990.28
2019-06-15T11:48:13.736Z,990.20
2019-06-15T11:49:13.847Z,990.13
2019-06-15T11:50:13.956Z,990.18
2019-06-15T11:51:14.048Z,990.33
2019-06-15T11:52:14.152Z,990.35
2019-06-15T11:53:14.251Z,990.34
2019-06-15T11:54:14.356Z,990.24
2019-06-15T11:55:14.467Z,990.23
2019-06-15T11:56:14.563Z,990.22
2019-06-15T11:57:14.658Z,990.17
2019-06-15T11:58:14.759Z,990.15
2019-06-15T11:59:14.863Z,990.21
2019-06-15T12:00:30.430Z,990.22
2019-06-15T12:01:15.078Z,990.25
2019-06-15T12:02:15.174Z,990.22
2019-06-15T12:03:15.276Z,990.23
2019-06-15T12:04:15.380Z,990.22
2019-06-15T12:05:15.550Z,990.27
2019-06-15T12:06:15.578Z,990.30
2019-06-15T12:07:15.664Z,990.23
2019-06-15T12:08:15.769Z,990.20
2019-06-15T12:09:15.869Z,990.22
2019-06-15T12:10:15.976Z,990.27
2019-06-15T12:11:16.114Z,990.23
2019-06-15T12:12:16.176Z,990.41
2019-06-15T12:13:16.294Z,990.44
2019-06-15T12:14:16.380Z,990.37
2019-06-15T12:15:16.483Z,990.32
2019-06-15T12:16:16.768Z,990.43
2019-06-15T12:17:16.714Z,990.35
2019-06-15T12:18:16.810Z,990.43
2019-06-15T12:19:16.936Z,990.37
2019-06-15T12:20:17.036Z,990.32
2019-06-15T12:21:17.142Z,990.31
2019-06-15T12:22:17.267Z,990.29
2019-06-15T12:23:17.344Z,990.25
2019-06-15T12:24:17.446Z,990.28
2019-06-15T12:25:17.546Z,990.32
2019-06-15T12:26:17.653Z,990.26
2019-06-15T12:27:17.756Z,990.26
2019-06-15T12:28:17.859Z,990.21
2019-06-15T12:29:17.963Z,990.21
2019-06-15T12:30:18.054Z,990.24
2019-06-15T12:31:18.153Z,990.29
2019-06-15T12:32:18.256Z,990.21
2019-06-15T12:33:18.361Z,990.19
2019-06-15T12:34:21.098Z,990.23
2019-06-15T12:35:18.565Z,990.26
2019-06-15T12:36:19.743Z,990.24